createdAt,value
2018-10-18T00:02:20.667Z,12.60
2018-10-18T00:04:48.566Z,12.70
2018-10-18T00:07:16.223Z,12.60
2018-10-18T00:09:43.896Z,12.60
2018-10-18T00:12:11.669Z,12.70
2018-10-18T00:14:39.293Z,12.60
2018-10-18T00:17:12.105Z,12.60
2018-10-18T00:19:39.802Z,12.50
2018-10-18T00:22:07.496Z,12.50
2018-10-18T00:24:35.900Z,12.50
2018-10-18T00:27:03.646Z,12.50
2018-10-18T00:29:31.305Z,12.50
2018-10-18T00:31:58.984Z,12.50
2018-10-18T00:34:26.668Z,12.50
2018-10-18T00:36:54.375Z,12.50
2018-10-18T00:39:22.059Z,12.50
2018-10-18T00:41:49.751Z,12.50
2018-10-18T00:44:17.521Z,12.50
2018-10-18T00:46:45.144Z,12.50
2018-10-18T00:49:12.855Z,12.40
2018-10-18T00:51:40.533Z,12.40
2018-10-18T00:54:08.632Z,12.40
2018-10-18T00:56:36.228Z,12.40
2018-10-18T00:59:03.945Z,12.30
2018-10-18T01:01:31.599Z,12.40
2018-10-18T01:03:59.237Z,12.40
2018-10-18T01:06:26.919Z,12.30
2018-10-18T01:08:54.622Z,12.30
2018-10-18T01:11:22.333Z,12.30
2018-10-18T01:13:50.121Z,12.30
2018-10-18T01:16:18.216Z,12.20
2018-10-18T01:18:46.874Z,12.20
2018-10-18T01:21:14.581Z,12.10
2018-10-18T01:23:43.034Z,12.10
2018-10-18T01:26:10.798Z,12.10
2018-10-18T01:28:38.705Z,12.00
2018-10-18T01:31:06.882Z,12.10
2018-10-18T01:33:34.583Z,12.10
2018-10-18T01:36:02.321Z,12.10
2018-10-18T01:38:29.945Z,12.00
2018-10-18T01:40:57.670Z,12.10
2018-10-18T01:43:25.329Z,12.00
2018-10-18T01:45:53.012Z,12.00
2018-10-18T01:48:21.273Z,11.90
2018-10-18T01:50:49.025Z,11.90
2018-10-18T01:53:16.685Z,12.00
2018-10-18T01:55:44.356Z,12.00
2018-10-18T01:58:12.030Z,12.00
2018-10-18T02:00:39.716Z,12.10
2018-10-18T02:03:07.497Z,12.10
2018-10-18T02:05:35.158Z,12.20
2018-10-18T02:08:02.842Z,12.10
2018-10-18T02:10:30.572Z,12.20
2018-10-18T02:13:07.317Z,12.30
2018-10-18T02:15:34.982Z,12.40
2018-10-18T02:18:02.822Z,12.40
2018-10-18T02:20:30.470Z,12.50
2018-10-18T02:22:58.365Z,12.50
2018-10-18T02:25:26.031Z,12.60
2018-10-18T02:27:53.719Z,12.60
2018-10-18T02:30:21.482Z,12.70
2018-10-18T02:32:49.090Z,12.70
2018-10-18T02:35:16.784Z,12.80
2018-10-18T02:37:44.461Z,12.70
2018-10-18T02:40:12.120Z,12.80
2018-10-18T02:42:39.784Z,12.80
2018-10-18T02:45:07.524Z,12.80
2018-10-18T02:47:35.182Z,12.80
2018-10-18T02:50:02.866Z,12.80
2018-10-18T02:52:30.518Z,12.80
2018-10-18T02:54:58.197Z,12.80
2018-10-18T02:57:25.919Z,12.80
2018-10-18T02:59:53.626Z,12.80
2018-10-18T03:02:21.361Z,12.90
2018-10-18T03:04:49.024Z,12.90
2018-10-18T03:07:16.689Z,12.90
2018-10-18T03:09:44.349Z,12.90
2018-10-18T03:12:12.216Z,12.90
2018-10-18T03:14:39.853Z,13.00
2018-10-18T03:17:07.581Z,12.90
2018-10-18T03:19:35.272Z,13.00
2018-10-18T03:22:02.946Z,12.90
2018-10-18T03:24:30.621Z,12.90
2018-10-18T03:26:58.301Z,12.90
2018-10-18T03:29:26.253Z,13.00
2018-10-18T03:31:53.937Z,12.90
2018-10-18T03:34:21.593Z,13.00
2018-10-18T03:36:49.261Z,13.00
2018-10-18T03:39:16.934Z,13.00
2018-10-18T03:41:44.597Z,13.00
2018-10-18T03:44:12.253Z,13.10
2018-10-18T03:46:39.917Z,13.10
2018-10-18T03:49:07.717Z,13.10
2018-10-18T03:51:35.564Z,13.10
2018-10-18T03:54:03.597Z,13.10
2018-10-18T03:56:31.220Z,13.10
2018-10-18T03:58:58.889Z,13.10
2018-10-18T04:01:27.066Z,13.10
2018-10-18T04:03:54.743Z,13.10
2018-10-18T04:06:22.510Z,13.10
2018-10-18T04:08:50.122Z,13.10
2018-10-18T04:11:17.773Z,13.20
2018-10-18T04:13:45.422Z,13.20
2018-10-18T04:16:13.165Z,13.20
2018-10-18T04:18:40.817Z,13.20
2018-10-18T04:21:08.505Z,13.20
2018-10-18T04:23:36.225Z,13.20
2018-10-18T04:26:04.504Z,13.20
2018-10-18T04:28:32.885Z,13.30
2018-10-18T04:31:01.704Z,13.30
2018-10-18T04:33:30.385Z,13.30
2018-10-18T04:35:58.115Z,13.20
2018-10-18T04:38:25.788Z,13.30
2018-10-18T04:40:53.420Z,13.30
2018-10-18T04:43:21.169Z,13.20
2018-10-18T04:45:48.845Z,13.20
2018-10-18T04:48:16.621Z,13.20
2018-10-18T04:50:44.192Z,13.20
2018-10-18T04:53:12.178Z,13.20
2018-10-18T04:55:39.840Z,13.20
2018-10-18T04:58:07.685Z,13.30
2018-10-18T05:00:35.375Z,13.20
2018-10-18T05:03:03.075Z,13.30
2018-10-18T05:05:36.321Z,13.20
2018-10-18T05:08:04.069Z,13.30
2018-10-18T05:10:31.725Z,13.30
2018-10-18T05:12:59.415Z,13.30
2018-10-18T05:15:27.097Z,13.30
2018-10-18T05:17:54.760Z,13.30
2018-10-18T05:20:22.469Z,13.30
2018-10-18T05:22:50.125Z,13.30
2018-10-18T05:25:17.934Z,13.30
2018-10-18T05:27:45.527Z,13.30
2018-10-18T05:30:13.230Z,13.30
2018-10-18T05:32:40.897Z,13.30
2018-10-18T05:35:08.604Z,13.30
2018-10-18T05:37:36.314Z,13.30
2018-10-18T05:40:04.455Z,13.30
2018-10-18T05:42:32.169Z,13.30
2018-10-18T05:44:59.838Z,13.30
2018-10-18T05:47:27.548Z,13.30
2018-10-18T05:49:55.197Z,13.30
2018-10-18T05:52:22.905Z,13.30
2018-10-18T05:54:50.569Z,13.30
2018-10-18T05:57:18.358Z,13.20
2018-10-18T05:59:46.029Z,13.30
2018-10-18T06:02:13.737Z,13.30
2018-10-18T06:04:41.414Z,13.30
2018-10-18T06:07:09.188Z,13.30
2018-10-18T06:09:36.785Z,13.30
2018-10-18T06:12:04.529Z,13.30
2018-10-18T06:14:32.190Z,13.30
2018-10-18T06:16:59.872Z,13.30
2018-10-18T06:19:27.555Z,13.30
2018-10-18T06:21:55.247Z,13.40
2018-10-18T06:24:22.931Z,13.40
2018-10-18T06:26:50.590Z,13.40
2018-10-18T06:29:18.305Z,13.40
2018-10-18T06:31:45.989Z,13.40
2018-10-18T06:34:13.805Z,13.40
2018-10-18T06:36:42.230Z,13.40
2018-10-18T06:39:11.391Z,13.50
2018-10-18T06:41:39.865Z,13.50
2018-10-18T06:44:07.659Z,13.50
2018-10-18T06:46:35.351Z,13.50
2018-10-18T06:49:03.113Z,13.50
2018-10-18T06:51:30.732Z,13.50
2018-10-18T06:53:58.491Z,13.50
2018-10-18T06:56:26.164Z,13.50
2018-10-18T06:58:53.881Z,13.50
2018-10-18T07:01:21.600Z,13.50
2018-10-18T07:03:49.289Z,13.50
2018-10-18T07:06:17.083Z,13.50
2018-10-18T07:08:44.673Z,13.50
2018-10-18T07:11:12.398Z,13.50
2018-10-18T07:13:40.060Z,13.50
2018-10-18T07:16:07.750Z,13.50
2018-10-18T07:18:35.418Z,13.50
2018-10-18T07:21:03.108Z,13.60
2018-10-18T07:23:30.781Z,13.60
2018-10-18T07:25:58.459Z,13.70
2018-10-18T07:28:26.138Z,13.70
2018-10-18T07:30:53.824Z,13.70
2018-10-18T07:33:21.552Z,13.70
2018-10-18T07:35:49.301Z,13.70
2018-10-18T07:38:16.972Z,13.70
2018-10-18T07:40:44.670Z,13.70
2018-10-18T07:43:12.339Z,13.70
2018-10-18T07:45:40.054Z,13.70
2018-10-18T07:48:07.778Z,13.70
2018-10-18T07:50:35.473Z,13.70
2018-10-18T07:53:03.310Z,13.70
2018-10-18T07:55:30.941Z,13.80
2018-10-18T07:57:58.619Z,13.80
2018-10-18T08:00:26.479Z,13.90
2018-10-18T08:02:54.117Z,13.90
2018-10-18T08:05:21.861Z,13.90
2018-10-18T08:07:49.590Z,13.90
2018-10-18T08:10:18.320Z,13.90
2018-10-18T08:12:46.046Z,13.90
2018-10-18T08:15:14.975Z,13.90
2018-10-18T08:17:43.252Z,13.80
2018-10-18T08:20:11.674Z,13.80
2018-10-18T08:22:39.882Z,13.80
2018-10-18T08:25:07.562Z,13.80
2018-10-18T08:27:35.853Z,13.80
2018-10-18T08:30:04.304Z,13.70
2018-10-18T08:32:32.070Z,13.70
2018-10-18T08:34:59.774Z,13.70
2018-10-18T08:37:27.510Z,13.70
2018-10-18T08:39:55.869Z,13.70
2018-10-18T08:42:23.608Z,13.60
2018-10-18T08:44:51.302Z,13.60
2018-10-18T08:47:19.013Z,13.70
2018-10-18T08:49:46.777Z,13.90
2018-10-18T08:52:14.433Z,13.90
2018-10-18T08:54:42.119Z,13.80
2018-10-18T08:57:09.807Z,13.80
2018-10-18T08:59:37.498Z,13.80
2018-10-18T09:02:05.201Z,13.80
2018-10-18T09:04:32.986Z,13.80
2018-10-18T09:07:00.974Z,13.80
2018-10-18T09:09:28.368Z,13.70
2018-10-18T09:11:56.998Z,13.70
2018-10-18T09:14:24.681Z,13.60
2018-10-18T09:16:52.405Z,13.70
2018-10-18T09:19:20.160Z,13.70
2018-10-18T09:21:48.569Z,13.70
2018-10-18T09:24:16.265Z,13.60
2018-10-18T09:26:44.573Z,13.70
2018-10-18T09:29:12.281Z,13.70
2018-10-18T09:31:40.002Z,13.60
2018-10-18T09:34:07.688Z,13.60
2018-10-18T09:36:35.408Z,13.70
2018-10-18T09:39:03.804Z,13.60
2018-10-18T09:41:31.521Z,13.50
2018-10-18T09:44:03.040Z,13.60
2018-10-18T09:46:31.341Z,13.60
2018-10-18T09:48:59.315Z,13.50
2018-10-18T09:51:26.949Z,13.50
2018-10-18T09:53:54.685Z,13.50
2018-10-18T09:56:22.420Z,13.50
2018-10-18T09:58:50.120Z,13.60
2018-10-18T10:02:27.128Z,13.70
2018-10-18T10:04:54.839Z,13.80
2018-10-18T10:07:22.540Z,13.70
2018-10-18T10:09:50.246Z,13.70
2018-10-18T10:12:18.374Z,13.80
2018-10-18T10:14:46.225Z,13.80
2018-10-18T10:17:14.001Z,13.80
2018-10-18T10:19:42.669Z,13.80
2018-10-18T10:22:10.334Z,13.90
2018-10-18T10:24:38.062Z,14.00
2018-10-18T10:27:05.760Z,14.20
2018-10-18T10:29:33.456Z,14.10
2018-10-18T10:32:01.141Z,14.20
2018-10-18T10:34:28.817Z,14.30
2018-10-18T10:36:56.526Z,14.30
2018-10-18T10:39:25.160Z,14.20
2018-10-18T10:41:52.877Z,14.20
2018-10-18T10:44:21.175Z,14.10
2018-10-18T10:46:48.882Z,14.30
2018-10-18T10:49:16.629Z,14.40
2018-10-18T10:51:44.301Z,14.60
2018-10-18T10:54:12.083Z,14.60
2018-10-18T10:56:39.715Z,14.70
2018-10-18T10:59:12.908Z,14.50
2018-10-18T11:01:40.597Z,14.50
2018-10-18T11:04:08.297Z,14.70
2018-10-18T11:06:35.957Z,14.80
2018-10-18T11:09:04.552Z,15.10
2018-10-18T11:11:32.265Z,15.20
2018-10-18T11:14:00.001Z,15.30
2018-10-18T11:16:27.636Z,15.20
2018-10-18T11:18:55.435Z,15.10
2018-10-18T11:21:23.783Z,15.10
2018-10-18T11:23:51.482Z,15.30
2018-10-18T11:26:19.306Z,15.40
2018-10-18T11:28:47.649Z,15.60
2018-10-18T11:31:15.361Z,15.60
2018-10-18T11:33:43.052Z,15.20
2018-10-18T11:36:10.885Z,14.90
2018-10-18T11:38:38.477Z,14.90
2018-10-18T11:41:06.198Z,15.00
2018-10-18T11:43:33.882Z,15.10
2018-10-18T11:46:01.595Z,15.70
2018-10-18T11:48:29.305Z,16.50
2018-10-18T11:50:57.645Z,17.20
2018-10-18T11:53:26.060Z,17.70
2018-10-18T11:55:53.766Z,17.30
2018-10-18T11:58:21.467Z,17.10
2018-10-18T12:00:49.182Z,16.70
2018-10-18T12:03:16.878Z,16.40
2018-10-18T12:05:44.581Z,16.30
2018-10-18T12:08:12.487Z,16.40
2018-10-18T12:10:40.081Z,16.60
2018-10-18T12:13:07.832Z,16.90
2018-10-18T12:15:35.501Z,17.00
2018-10-18T12:18:03.208Z,17.00
2018-10-18T12:20:30.935Z,16.90
2018-10-18T12:22:58.629Z,16.70
2018-10-18T12:25:26.314Z,16.40
2018-10-18T12:27:53.996Z,16.60
2018-10-18T12:30:21.761Z,16.90
2018-10-18T12:32:49.435Z,17.20
2018-10-18T12:35:17.162Z,17.80
2018-10-18T12:37:44.833Z,18.30
2018-10-18T12:40:12.568Z,18.60
2018-10-18T12:42:41.904Z,18.50
2018-10-18T12:45:10.637Z,18.40
2018-10-18T12:47:38.343Z,17.70
2018-10-18T12:50:06.344Z,17.30
2018-10-18T12:52:33.976Z,16.80
2018-10-18T12:55:01.988Z,16.90
2018-10-18T12:57:29.695Z,16.60
2018-10-18T12:59:57.391Z,16.40
2018-10-18T13:02:25.170Z,16.80
2018-10-18T13:04:52.822Z,17.50
2018-10-18T13:07:20.525Z,18.00
2018-10-18T13:09:48.238Z,18.40
2018-10-18T13:12:16.006Z,18.30
2018-10-18T13:14:43.636Z,18.80
2018-10-18T13:17:11.411Z,19.10
2018-10-18T13:19:39.098Z,19.30
2018-10-18T13:22:07.680Z,19.30
2018-10-18T13:24:35.366Z,19.60
2018-10-18T13:27:03.071Z,19.50
2018-10-18T13:29:30.777Z,18.40
2018-10-18T13:31:58.479Z,18.70
2018-10-18T13:34:26.187Z,18.60
2018-10-18T13:36:53.867Z,19.00
2018-10-18T13:39:21.543Z,18.60
2018-10-18T13:41:49.249Z,18.20
2018-10-18T13:44:17.021Z,18.00
2018-10-18T13:46:44.658Z,18.30
2018-10-18T13:49:12.363Z,18.20
2018-10-18T13:51:40.042Z,18.30
2018-10-18T13:54:07.888Z,17.60
2018-10-18T13:56:35.553Z,17.20
2018-10-18T13:59:03.349Z,16.90
2018-10-18T14:01:31.056Z,16.90
2018-10-18T14:03:58.753Z,16.90
2018-10-18T14:06:26.463Z,17.80
2018-10-18T14:08:54.183Z,18.60
2018-10-18T14:11:21.971Z,19.40
2018-10-18T14:13:49.652Z,19.70
2018-10-18T14:16:17.305Z,18.90
2018-10-18T14:18:45.038Z,18.40
2018-10-18T14:21:12.794Z,17.60
2018-10-18T14:23:40.573Z,17.30
2018-10-18T14:26:08.284Z,17.10
2018-10-18T14:28:35.977Z,16.90
2018-10-18T14:31:03.682Z,16.70
2018-10-18T14:33:31.353Z,16.70
2018-10-18T14:35:59.082Z,16.70
2018-10-18T14:38:26.851Z,17.10
2018-10-18T14:41:06.496Z,17.50
2018-10-18T14:43:34.142Z,18.10
2018-10-18T14:46:01.817Z,18.30
2018-10-18T14:48:29.485Z,18.60
2018-10-18T14:50:57.177Z,18.10
2018-10-18T14:53:24.833Z,17.50
2018-10-18T14:55:52.563Z,17.20
2018-10-18T14:58:20.216Z,16.70
2018-10-18T15:00:47.889Z,16.40
2018-10-18T15:03:15.548Z,16.20
2018-10-18T15:05:43.225Z,16.00
2018-10-18T15:08:10.937Z,16.00
2018-10-18T15:10:38.593Z,16.00
2018-10-18T15:13:06.365Z,15.90
2018-10-18T15:15:34.053Z,15.90
2018-10-18T15:18:02.838Z,15.90
2018-10-18T15:20:30.516Z,15.90
2018-10-18T15:22:58.214Z,15.90
2018-10-18T15:25:26.043Z,15.80
2018-10-18T15:27:54.689Z,15.80
2018-10-18T15:30:22.337Z,15.70
2018-10-18T15:32:50.145Z,15.60
2018-10-18T15:35:17.926Z,15.60
2018-10-18T15:37:45.566Z,15.50
2018-10-18T15:40:13.211Z,15.50
2018-10-18T15:42:40.968Z,15.50
2018-10-18T15:45:09.388Z,15.50
2018-10-18T15:47:37.367Z,15.50
2018-10-18T15:50:05.834Z,15.50
2018-10-18T15:52:33.566Z,15.50
2018-10-18T15:55:01.228Z,15.50
2018-10-18T15:57:28.969Z,15.50
2018-10-18T15:59:56.635Z,15.40
2018-10-18T16:02:24.301Z,15.30
2018-10-18T16:04:52.104Z,15.30
2018-10-18T16:07:19.806Z,15.20
2018-10-18T16:09:47.512Z,15.10
2018-10-18T16:12:15.179Z,15.10
2018-10-18T16:14:42.857Z,15.10
2018-10-18T16:17:10.536Z,15.00
2018-10-18T16:19:38.744Z,15.00
2018-10-18T16:22:06.413Z,14.90
2018-10-18T16:24:34.096Z,14.80
2018-10-18T16:27:01.766Z,14.70
2018-10-18T16:29:29.482Z,14.50
2018-10-18T16:31:57.215Z,14.50
2018-10-18T16:34:24.862Z,14.30
2018-10-18T16:36:52.637Z,14.30
2018-10-18T16:39:20.349Z,14.20
2018-10-18T16:41:48.088Z,14.10
2018-10-18T16:44:15.772Z,14.10
2018-10-18T16:46:44.472Z,14.00
2018-10-18T16:49:12.125Z,14.00
2018-10-18T16:51:39.816Z,13.90
2018-10-18T16:54:07.710Z,13.80
2018-10-18T16:56:35.414Z,13.80
2018-10-18T16:59:03.071Z,13.70
2018-10-18T17:01:30.781Z,13.70
2018-10-18T17:03:58.511Z,13.60
2018-10-18T17:06:26.194Z,13.60
2018-10-18T17:08:54.112Z,13.60
2018-10-18T17:11:21.936Z,13.50
2018-10-18T17:13:49.545Z,13.50
2018-10-18T17:16:17.265Z,13.50
2018-10-18T17:18:44.909Z,13.40
2018-10-18T17:21:12.705Z,13.40
2018-10-18T17:23:40.369Z,13.40
2018-10-18T17:26:07.987Z,13.30
2018-10-18T17:28:35.685Z,13.30
2018-10-18T17:31:03.366Z,13.20
2018-10-18T17:33:31.050Z,13.20
2018-10-18T17:35:58.743Z,13.20
2018-10-18T17:38:26.421Z,13.20
2018-10-18T17:40:54.109Z,13.20
2018-10-18T17:43:22.076Z,13.20
2018-10-18T17:45:49.841Z,13.10
2018-10-18T17:48:17.577Z,13.10
2018-10-18T17:50:45.754Z,13.10
2018-10-18T17:53:13.469Z,13.10
2018-10-18T17:55:41.133Z,13.20
2018-10-18T17:58:09.015Z,13.20
2018-10-18T18:00:36.578Z,13.20
2018-10-18T18:03:04.393Z,13.10
2018-10-18T18:05:32.069Z,13.10
2018-10-18T18:07:59.795Z,13.10
2018-10-18T18:10:27.557Z,13.00
2018-10-18T18:12:55.253Z,13.00
2018-10-18T18:15:22.926Z,13.00
2018-10-18T18:17:50.679Z,13.00
2018-10-18T18:20:18.353Z,13.00
2018-10-18T18:22:46.099Z,13.00
2018-10-18T18:25:13.757Z,13.00
2018-10-18T18:27:41.461Z,13.10
2018-10-18T18:30:10.913Z,13.10
2018-10-18T18:32:38.686Z,13.00
2018-10-18T18:35:06.539Z,13.00
2018-10-18T18:37:34.445Z,13.00
2018-10-18T18:40:02.378Z,12.90
2018-10-18T18:42:30.061Z,12.90
2018-10-18T18:45:03.310Z,12.90
2018-10-18T18:47:31.068Z,12.90
2018-10-18T18:49:58.728Z,12.90
2018-10-18T18:52:26.377Z,12.90
2018-10-18T18:54:54.074Z,12.90
2018-10-18T18:57:21.739Z,12.90
2018-10-18T18:59:49.456Z,13.00
2018-10-18T19:02:17.142Z,13.00
2018-10-18T19:04:44.788Z,13.00
2018-10-18T19:07:12.475Z,13.00
2018-10-18T19:09:40.205Z,13.00
2018-10-18T19:12:08.053Z,13.00
2018-10-18T19:14:35.736Z,13.00
2018-10-18T19:17:03.553Z,13.00
2018-10-18T19:19:31.217Z,13.00
2018-10-18T19:21:58.921Z,13.00
2018-10-18T19:24:26.634Z,13.00
2018-10-18T19:26:54.398Z,12.90
2018-10-18T19:29:22.122Z,12.80
2018-10-18T19:31:49.820Z,12.70
2018-10-18T19:39:09.714Z,12.60
2018-10-18T19:41:37.445Z,12.50
2018-10-18T19:44:05.574Z,12.40
2018-10-18T19:46:33.326Z,12.30
2018-10-18T19:49:01.032Z,12.30
2018-10-18T19:51:28.748Z,12.20
2018-10-18T19:53:56.422Z,12.30
2018-10-18T19:56:24.145Z,12.30
2018-10-18T19:58:51.813Z,12.40
2018-10-18T20:01:19.540Z,12.50
2018-10-18T20:03:47.290Z,12.50
2018-10-18T20:06:14.981Z,12.60
2018-10-18T20:08:42.693Z,12.60
2018-10-18T20:11:10.529Z,12.60
2018-10-18T20:13:38.233Z,12.70
2018-10-18T20:16:06.296Z,12.70
2018-10-18T20:18:34.858Z,12.80
2018-10-18T20:21:03.037Z,12.80
2018-10-18T20:23:30.915Z,12.80
2018-10-18T20:25:58.888Z,12.80
2018-10-18T20:28:26.533Z,12.80
2018-10-18T20:30:54.289Z,12.80
2018-10-18T20:33:21.972Z,12.80
2018-10-18T20:35:49.658Z,12.80
2018-10-18T20:38:17.376Z,12.90
2018-10-18T20:40:45.059Z,12.90
2018-10-18T20:43:12.729Z,12.90
2018-10-18T20:45:40.432Z,12.90
2018-10-18T20:48:08.599Z,12.90
2018-10-18T20:50:36.281Z,12.90
2018-10-18T20:53:04.039Z,13.00
2018-10-18T20:55:31.747Z,13.00
2018-10-18T20:57:59.521Z,13.00
2018-10-18T21:00:27.301Z,12.90
2018-10-18T21:02:55.406Z,12.90
2018-10-18T21:05:23.166Z,12.90
2018-10-18T21:07:50.893Z,12.90
2018-10-18T21:10:18.597Z,12.80
2018-10-18T21:12:46.954Z,12.80
2018-10-18T21:15:14.770Z,12.80
2018-10-18T21:17:43.591Z,12.80
2018-10-18T21:20:11.488Z,12.70
2018-10-18T21:22:39.205Z,12.70
2018-10-18T21:25:07.209Z,12.70
2018-10-18T21:27:35.307Z,12.60
2018-10-18T21:30:03.113Z,12.60
2018-10-18T21:32:30.833Z,12.60
2018-10-18T21:34:58.593Z,12.60
2018-10-18T21:37:26.296Z,12.50
2018-10-18T21:39:54.042Z,12.50
2018-10-18T21:42:21.735Z,12.50
2018-10-18T21:44:49.962Z,12.50
2018-10-18T21:47:18.692Z,12.40
2018-10-18T21:49:46.407Z,12.30
2018-10-18T21:52:14.118Z,12.10
2018-10-18T21:54:41.819Z,12.10
2018-10-18T21:57:09.626Z,12.10
2018-10-18T21:59:37.201Z,12.20
2018-10-18T22:02:05.272Z,12.10
2018-10-18T22:04:33.032Z,12.20
2018-10-18T22:07:00.761Z,12.20
2018-10-18T22:09:28.493Z,12.10
2018-10-18T22:11:56.185Z,12.10
2018-10-18T22:14:23.920Z,12.10
2018-10-18T22:16:51.649Z,12.00
2018-10-18T22:19:19.337Z,11.90
2018-10-18T22:21:47.060Z,12.00
2018-10-18T22:24:14.748Z,12.00
2018-10-18T22:26:42.514Z,12.00
2018-10-18T22:29:10.332Z,12.00
2018-10-18T22:31:38.129Z,12.10
2018-10-18T22:34:06.201Z,12.10
2018-10-18T22:36:33.898Z,12.10
2018-10-18T22:39:01.727Z,12.10
2018-10-18T22:41:29.916Z,12.10
2018-10-18T22:43:57.609Z,12.20
2018-10-18T22:46:25.319Z,12.10
2018-10-18T22:48:52.981Z,12.10
2018-10-18T22:51:20.636Z,12.20
2018-10-18T22:53:48.365Z,12.20
2018-10-18T22:56:16.062Z,12.10
2018-10-18T22:58:44.257Z,12.20
2018-10-18T23:01:11.998Z,12.20
2018-10-18T23:03:39.674Z,12.20
2018-10-18T23:06:07.320Z,12.20
2018-10-18T23:08:35.029Z,12.20
2018-10-18T23:11:02.740Z,12.20
2018-10-18T23:13:30.473Z,12.30
2018-10-18T23:15:58.166Z,12.20
2018-10-18T23:18:25.857Z,12.20
2018-10-18T23:20:53.606Z,12.20
2018-10-18T23:23:21.288Z,12.20
2018-10-18T23:25:48.982Z,12.20
2018-10-18T23:28:16.664Z,12.20
2018-10-18T23:30:44.349Z,12.10
2018-10-18T23:33:12.122Z,12.20
2018-10-18T23:35:39.874Z,12.10
2018-10-18T23:38:07.536Z,12.10
2018-10-18T23:40:35.236Z,12.10
2018-10-18T23:43:02.921Z,12.00
2018-10-18T23:45:30.608Z,12.00
2018-10-18T23:47:58.305Z,12.00
2018-10-18T23:50:26.035Z,12.00
2018-10-18T23:52:53.735Z,12.00
2018-10-18T23:55:21.505Z,12.00
2018-10-18T23:57:50.169Z,12.00
